sensor_id;sensor_type;location;lat;lon;timestamp;pressure;altitude;pressure_sealevel;temperature;humidity
54042;BME280;41156;51.508;5.406;2022-07-23T00:00:46;101751.16;;;17.05;81.28
54042;BME280;41156;51.508;5.406;2022-07-23T00:03:47;101748.06;;;17.01;81.80
54042;BME280;41156;51.508;5.406;2022-07-23T00:06:47;101760.28;;;16.98;81.76
54042;BME280;41156;51.508;5.406;2022-07-23T00:09:47;101758.88;;;16.96;82.07
54042;BME280;41156;51.508;5.406;2022-07-23T00:12:48;101757.66;;;16.92;82.23
54042;BME280;41156;51.508;5.406;2022-07-23T00:15:48;101749.72;;;16.90;82.48
54042;BME280;41156;51.508;5.406;2022-07-23T00:18:48;101746.97;;;16.90;82.16
54042;BME280;41156;51.508;5.406;2022-07-23T00:21:48;101749.97;;;16.89;82.53
54042;BME280;41156;51.508;5.406;2022-07-23T00:24:49;101751.25;;;16.86;82.76
54042;BME280;41156;51.508;5.406;2022-07-23T00:27:49;101755.25;;;16.83;82.59
54042;BME280;41156;51.508;5.406;2022-07-23T00:30:49;101746.47;;;16.81;82.43
54042;BME280;41156;51.508;5.406;2022-07-23T00:33:50;101757.03;;;16.78;82.65
54042;BME280;41156;51.508;5.406;2022-07-23T00:36:50;101748.47;;;16.74;82.56
54042;BME280;41156;51.508;5.406;2022-07-23T00:39:50;101748.13;;;16.71;82.75
54042;BME280;41156;51.508;5.406;2022-07-23T00:42:51;101749.88;;;16.65;82.72
54042;BME280;41156;51.508;5.406;2022-07-23T00:45:51;101746.78;;;16.61;82.76
54042;BME280;41156;51.508;5.406;2022-07-23T00:48:51;101746.66;;;16.56;82.91
54042;BME280;41156;51.508;5.406;2022-07-23T00:51:52;101742.75;;;16.52;83.11
54042;BME280;41156;51.508;5.406;2022-07-23T00:54:53;101750.31;;;16.50;83.00
54042;BME280;41156;51.508;5.406;2022-07-23T00:57:54;101743.06;;;16.44;83.30
54042;BME280;41156;51.508;5.406;2022-07-23T01:00:55;101735.81;;;16.38;83.23
54042;BME280;41156;51.508;5.406;2022-07-23T01:03:55;101747.63;;;16.32;83.96
54042;BME280;41156;51.508;5.406;2022-07-23T01:06:56;101742.63;;;16.28;83.59
54042;BME280;41156;51.508;5.406;2022-07-23T01:09:57;101741.44;;;16.24;83.92
54042;BME280;41156;51.508;5.406;2022-07-23T01:12:59;101744.25;;;16.18;83.98
54042;BME280;41156;51.508;5.406;2022-07-23T01:16:00;101745.53;;;16.15;84.02
54042;BME280;41156;51.508;5.406;2022-07-23T01:19:00;101735.13;;;16.12;84.28
54042;BME280;41156;51.508;5.406;2022-07-23T01:22:02;101727.41;;;16.09;84.71
54042;BME280;41156;51.508;5.406;2022-07-23T01:25:03;101734.13;;;16.06;84.50
54042;BME280;41156;51.508;5.406;2022-07-23T01:28:03;101735.44;;;16.04;84.59
54042;BME280;41156;51.508;5.406;2022-07-23T01:31:04;101738.97;;;16.04;84.37
54042;BME280;41156;51.508;5.406;2022-07-23T01:34:04;101736.47;;;16.03;83.81
54042;BME280;41156;51.508;5.406;2022-07-23T01:37:07;101736.34;;;15.98;84.04
54042;BME280;41156;51.508;5.406;2022-07-23T01:40:07;101736.19;;;15.93;84.54
54042;BME280;41156;51.508;5.406;2022-07-23T01:43:08;101731.19;;;15.89;85.24
54042;BME280;41156;51.508;5.406;2022-07-23T01:46:08;101736.88;;;15.88;84.94
54042;BME280;41156;51.508;5.406;2022-07-23T01:49:08;101732.09;;;15.83;85.13
54042;BME280;41156;51.508;5.406;2022-07-23T01:52:09;101730.91;;;15.79;84.89
54042;BME280;41156;51.508;5.406;2022-07-23T01:55:11;101732.59;;;15.73;85.30
54042;BME280;41156;51.508;5.406;2022-07-23T01:58:11;101731.19;;;15.71;85.51
54042;BME280;41156;51.508;5.406;2022-07-23T02:01:11;101719.06;;;15.67;85.12
54042;BME280;41156;51.508;5.406;2022-07-23T02:04:11;101724.13;;;15.63;85.41
54042;BME280;41156;51.508;5.406;2022-07-23T02:07:12;101727.53;;;15.59;85.72
54042;BME280;41156;51.508;5.406;2022-07-23T02:10:13;101729.66;;;15.57;85.48
54042;BME280;41156;51.508;5.406;2022-07-23T02:13:13;101719.22;;;15.53;85.95
54042;BME280;41156;51.508;5.406;2022-07-23T02:16:13;101718.63;;;15.51;85.90
54042;BME280;41156;51.508;5.406;2022-07-23T02:19:14;101721.78;;;15.48;85.75
54042;BME280;41156;51.508;5.406;2022-07-23T02:22:14;101726.03;;;15.44;85.86
54042;BME280;41156;51.508;5.406;2022-07-23T02:25:14;101726.47;;;15.41;85.82
54042;BME280;41156;51.508;5.406;2022-07-23T02:28:15;101718.75;;;15.38;85.80
54042;BME280;41156;51.508;5.406;2022-07-23T02:31:15;101718.97;;;15.36;86.19
54042;BME280;41156;51.508;5.406;2022-07-23T02:34:15;101718.84;;;15.31;85.89
54042;BME280;41156;51.508;5.406;2022-07-23T02:37:16;101711.09;;;15.28;85.90
54042;BME280;41156;51.508;5.406;2022-07-23T02:40:17;101714.06;;;15.27;86.33
54042;BME280;41156;51.508;5.406;2022-07-23T02:43:17;101713.69;;;15.23;85.84
54042;BME280;41156;51.508;5.406;2022-07-23T02:46:18;101716.84;;;15.20;86.42
54042;BME280;41156;51.508;5.406;2022-07-23T02:49:18;101730.28;;;15.15;86.30
54042;BME280;41156;51.508;5.406;2022-07-23T02:52:18;101720.94;;;15.11;86.28
54042;BME280;41156;51.508;5.406;2022-07-23T02:55:18;101731.44;;;15.07;86.44
54042;BME280;41156;51.508;5.406;2022-07-23T02:58:19;101727.25;;;15.05;86.63
54042;BME280;41156;51.508;5.406;2022-07-23T03:01:19;101728.56;;;15.02;86.39
54042;BME280;41156;51.508;5.406;2022-07-23T03:04:19;101731.50;;;15.01;86.35
54042;BME280;41156;51.508;5.406;2022-07-23T03:07:20;101736.53;;;14.97;86.65
54042;BME280;41156;51.508;5.406;2022-07-23T03:10:20;101735.91;;;14.95;86.81
54042;BME280;41156;51.508;5.406;2022-07-23T03:13:20;101736.34;;;14.92;87.03
54042;BME280;41156;51.508;5.406;2022-07-23T03:16:21;101736.78;;;14.89;87.28
54042;BME280;41156;51.508;5.406;2022-07-23T03:19:21;101735.38;;;14.86;86.87
54042;BME280;41156;51.508;5.406;2022-07-23T03:22:21;101738.53;;;14.83;87.44
54042;BME280;41156;51.508;5.406;2022-07-23T03:25:22;101739.19;;;14.78;87.47
54042;BME280;41156;51.508;5.406;2022-07-23T03:28:22;101738.16;;;14.79;87.10
54042;BME280;41156;51.508;5.406;2022-07-23T03:31:22;101744.69;;;14.72;87.79
54042;BME280;41156;51.508;5.406;2022-07-23T03:34:22;101741.19;;;14.65;87.88
54042;BME280;41156;51.508;5.406;2022-07-23T03:37:23;101740.09;;;14.72;87.46
54042;BME280;41156;51.508;5.406;2022-07-23T03:40:23;101748.25;;;14.72;87.33
54042;BME280;41156;51.508;5.406;2022-07-23T03:43:23;101739.44;;;14.70;87.38
54042;BME280;41156;51.508;5.406;2022-07-23T03:46:25;101746.56;;;14.71;87.17
54042;BME280;41156;51.508;5.406;2022-07-23T03:49:26;101744.72;;;14.65;87.53
54042;BME280;41156;51.508;5.406;2022-07-23T03:52:26;101748.50;;;14.64;87.84
54042;BME280;41156;51.508;5.406;2022-07-23T03:55:26;101742.84;;;14.66;87.73
54042;BME280;41156;51.508;5.406;2022-07-23T03:58:26;101749.13;;;14.66;87.78
54042;BME280;41156;51.508;5.406;2022-07-23T04:01:27;101747.66;;;14.64;87.86
54042;BME280;41156;51.508;5.406;2022-07-23T04:04:27;101747.28;;;14.60;87.72
54042;BME280;41156;51.508;5.406;2022-07-23T04:07:27;101743.91;;;14.58;87.90
54042;BME280;41156;51.508;5.406;2022-07-23T04:10:28;101748.53;;;14.57;87.76
54042;BME280;41156;51.508;5.406;2022-07-23T04:13:28;101751.47;;;14.56;87.76
54042;BME280;41156;51.508;5.406;2022-07-23T04:16:28;101750.88;;;14.54;87.79
54042;BME280;41156;51.508;5.406;2022-07-23T04:19:28;101756.06;;;14.55;88.30
54042;BME280;41156;51.508;5.406;2022-07-23T04:22:30;101757.72;;;14.56;87.84
54042;BME280;41156;51.508;5.406;2022-07-23T04:25:30;101761.28;;;14.57;88.31
54042;BME280;41156;51.508;5.406;2022-07-23T04:28:31;101764.66;;;14.59;88.41
54042;BME280;41156;51.508;5.406;2022-07-23T04:31:31;101764.19;;;14.62;88.24
54042;BME280;41156;51.508;5.406;2022-07-23T04:34:31;101771.94;;;14.65;88.68
54042;BME280;41156;51.508;5.406;2022-07-23T04:37:32;101773.59;;;14.66;88.75
54042;BME280;41156;51.508;5.406;2022-07-23T04:40:32;101776.94;;;14.68;88.51
54042;BME280;41156;51.508;5.406;2022-07-23T04:43:32;101774.59;;;14.72;88.80
54042;BME280;41156;51.508;5.406;2022-07-23T04:46:32;101775.00;;;14.75;88.55
54042;BME280;41156;51.508;5.406;2022-07-23T04:49:33;101794.00;;;14.82;88.43
54042;BME280;41156;51.508;5.406;2022-07-23T04:52:33;101786.84;;;14.88;88.70
54042;BME280;41156;51.508;5.406;2022-07-23T04:55:33;101790.56;;;14.93;89.09
54042;BME280;41156;51.508;5.406;2022-07-23T04:58:34;101785.06;;;15.00;88.56
54042;BME280;41156;51.508;5.406;2022-07-23T05:01:34;101792.34;;;15.06;89.07
54042;BME280;41156;51.508;5.406;2022-07-23T05:04:34;101788.75;;;15.12;88.68
54042;BME280;41156;51.508;5.406;2022-07-23T05:07:35;101789.75;;;15.18;88.58
54042;BME280;41156;51.508;5.406;2022-07-23T05:10:35;101795.34;;;15.23;89.05
54042;BME280;41156;51.508;5.406;2022-07-23T05:13:35;101790.28;;;15.27;88.91
54042;BME280;41156;51.508;5.406;2022-07-23T05:16:35;101796.53;;;15.34;88.53
54042;BME280;41156;51.508;5.406;2022-07-23T05:19:36;101796.09;;;15.37;88.94
54042;BME280;41156;51.508;5.406;2022-07-23T05:22:36;101798.97;;;15.42;88.93
54042;BME280;41156;51.508;5.406;2022-07-23T05:25:36;101796.63;;;15.46;88.87
54042;BME280;41156;51.508;5.406;2022-07-23T05:28:37;101802.47;;;15.49;89.02
54042;BME280;41156;51.508;5.406;2022-07-23T05:31:37;101798.00;;;15.55;88.81
54042;BME280;41156;51.508;5.406;2022-07-23T05:34:37;101799.16;;;15.66;88.47
54042;BME280;41156;51.508;5.406;2022-07-23T05:37:37;101806.19;;;15.73;88.13
54042;BME280;41156;51.508;5.406;2022-07-23T05:40:38;101813.53;;;15.73;88.14
54042;BME280;41156;51.508;5.406;2022-07-23T05:43:39;101808.50;;;15.77;88.25
54042;BME280;41156;51.508;5.406;2022-07-23T05:46:40;101813.28;;;15.81;88.72
54042;BME280;41156;51.508;5.406;2022-07-23T05:49:40;101816.75;;;15.88;88.21
54042;BME280;41156;51.508;5.406;2022-07-23T05:52:40;101818.66;;;15.88;88.49
54042;BME280;41156;51.508;5.406;2022-07-23T05:55:41;101820.84;;;15.98;88.08
54042;BME280;41156;51.508;5.406;2022-07-23T05:58:42;101825.19;;;16.05;87.92
54042;BME280;41156;51.508;5.406;2022-07-23T06:01:42;101832.13;;;16.20;87.50
54042;BME280;41156;51.508;5.406;2022-07-23T06:04:42;101829.63;;;16.18;88.12
54042;BME280;41156;51.508;5.406;2022-07-23T06:07:42;101829.09;;;16.28;87.35
54042;BME280;41156;51.508;5.406;2022-07-23T06:10:43;101836.34;;;16.34;87.36
54042;BME280;41156;51.508;5.406;2022-07-23T06:13:43;101840.94;;;16.52;87.45
54042;BME280;41156;51.508;5.406;2022-07-23T06:16:43;101839.91;;;16.65;87.04
54042;BME280;41156;51.508;5.406;2022-07-23T06:19:43;101838.09;;;16.77;86.82
54042;BME280;41156;51.508;5.406;2022-07-23T06:22:44;101832.59;;;16.96;87.11
54042;BME280;41156;51.508;5.406;2022-07-23T06:25:44;101829.31;;;17.17;86.75
54042;BME280;41156;51.508;5.406;2022-07-23T06:28:44;101834.69;;;17.60;85.30
54042;BME280;41156;51.508;5.406;2022-07-23T06:31:45;101837.03;;;18.03;84.47
54042;BME280;41156;51.508;5.406;2022-07-23T06:34:45;101835.72;;;18.46;82.67
54042;BME280;41156;51.508;5.406;2022-07-23T06:37:46;101836.88;;;19.08;81.23
54042;BME280;41156;51.508;5.406;2022-07-23T06:40:46;101840.28;;;19.66;79.43
54042;BME280;41156;51.508;5.406;2022-07-23T06:43:46;101843.94;;;20.11;77.35
54042;BME280;41156;51.508;5.406;2022-07-23T06:46:47;101842.34;;;20.37;75.50
54042;BME280;41156;51.508;5.406;2022-07-23T06:49:47;101848.31;;;20.56;74.36
54042;BME280;41156;51.508;5.406;2022-07-23T06:52:47;101843.50;;;20.63;74.06
54042;BME280;41156;51.508;5.406;2022-07-23T06:55:47;101848.25;;;20.73;72.67
54042;BME280;41156;51.508;5.406;2022-07-23T06:58:48;101852.88;;;20.67;72.24
54042;BME280;41156;51.508;5.406;2022-07-23T07:01:48;101843.09;;;20.77;71.63
54042;BME280;41156;51.508;5.406;2022-07-23T07:04:49;101843.63;;;20.57;71.16
54042;BME280;41156;51.508;5.406;2022-07-23T07:07:49;101838.84;;;20.42;71.00
54042;BME280;41156;51.508;5.406;2022-07-23T07:10:49;101841.06;;;20.01;71.17
54042;BME280;41156;51.508;5.406;2022-07-23T07:13:50;101843.75;;;19.95;71.45
54042;BME280;41156;51.508;5.406;2022-07-23T07:16:50;101837.41;;;19.95;71.26
54042;BME280;41156;51.508;5.406;2022-07-23T07:19:50;101841.00;;;20.18;71.57
54042;BME280;41156;51.508;5.406;2022-07-23T07:22:51;101843.75;;;20.18;70.99
54042;BME280;41156;51.508;5.406;2022-07-23T07:25:51;101847.28;;;20.35;71.55
54042;BME280;41156;51.508;5.406;2022-07-23T07:28:51;101850.84;;;20.36;71.12
54042;BME280;41156;51.508;5.406;2022-07-23T07:31:51;101858.47;;;20.56;71.78
54042;BME280;41156;51.508;5.406;2022-07-23T07:34:52;101864.09;;;20.66;71.94
54042;BME280;41156;51.508;5.406;2022-07-23T07:37:52;101862.28;;;21.04;72.49
54042;BME280;41156;51.508;5.406;2022-07-23T07:40:52;101854.56;;;21.66;71.39
54042;BME280;41156;51.508;5.406;2022-07-23T07:43:52;101854.84;;;22.22;69.53
54042;BME280;41156;51.508;5.406;2022-07-23T07:46:53;101858.03;;;22.57;67.76
54042;BME280;41156;51.508;5.406;2022-07-23T07:49:53;101853.72;;;22.91;66.51
54042;BME280;41156;51.508;5.406;2022-07-23T07:52:53;101854.53;;;23.54;64.41
54042;BME280;41156;51.508;5.406;2022-07-23T07:55:54;101846.66;;;24.17;63.16
54042;BME280;41156;51.508;5.406;2022-07-23T07:58:54;101853.97;;;24.48;61.66
54042;BME280;41156;51.508;5.406;2022-07-23T08:01:54;101860.56;;;25.02;60.23
54042;BME280;41156;51.508;5.406;2022-07-23T08:04:55;101853.75;;;25.28;59.48
54042;BME280;41156;51.508;5.406;2022-07-23T08:07:58;101856.50;;;25.58;57.91
54042;BME280;41156;51.508;5.406;2022-07-23T08:10:58;101851.69;;;25.93;57.04
54042;BME280;41156;51.508;5.406;2022-07-23T08:13:59;101860.00;;;25.93;55.72
54042;BME280;41156;51.508;5.406;2022-07-23T08:16:59;101856.94;;;25.94;54.87
54042;BME280;41156;51.508;5.406;2022-07-23T08:19:59;101857.59;;;25.86;54.30
54042;BME280;41156;51.508;5.406;2022-07-23T08:23:03;101860.75;;;26.03;49.78
54042;BME280;41156;51.508;5.406;2022-07-23T08:26:04;101866.31;;;26.22;52.82
54042;BME280;41156;51.508;5.406;2022-07-23T08:29:04;101875.13;;;26.49;51.90
54042;BME280;41156;51.508;5.406;2022-07-23T08:32:05;101874.47;;;26.38;51.33
54042;BME280;41156;51.508;5.406;2022-07-23T08:35:05;101878.28;;;26.42;50.74
54042;BME280;41156;51.508;5.406;2022-07-23T08:38:08;101878.56;;;26.40;48.20
54042;BME280;41156;51.508;5.406;2022-07-23T08:41:09;101886.25;;;26.25;49.18
54042;BME280;41156;51.508;5.406;2022-07-23T08:47:21;101876.91;;;26.64;49.30
54042;BME280;41156;51.508;5.406;2022-07-23T08:50:23;101886.50;;;26.71;48.19
54042;BME280;41156;51.508;5.406;2022-07-23T08:53:24;101885.00;;;26.79;48.42
54042;BME280;41156;51.508;5.406;2022-07-23T08:56:25;101889.03;;;26.68;48.23
54042;BME280;41156;51.508;5.406;2022-07-23T08:59:25;101886.06;;;26.59;48.18
54042;BME280;41156;51.508;5.406;2022-07-23T09:02:26;101892.94;;;26.67;48.66
54042;BME280;41156;51.508;5.406;2022-07-23T09:05:28;101884.25;;;26.73;47.95
54042;BME280;41156;51.508;5.406;2022-07-23T09:08:42;101882.50;;;26.58;46.43
54042;BME280;41156;51.508;5.406;2022-07-23T09:11:46;101878.91;;;26.58;48.71
54042;BME280;41156;51.508;5.406;2022-07-23T09:14:46;101879.78;;;26.53;48.17
54042;BME280;41156;51.508;5.406;2022-07-23T09:17:47;101873.78;;;26.46;48.45
54042;BME280;41156;51.508;5.406;2022-07-23T09:20:47;101868.00;;;26.43;48.26
54042;BME280;41156;51.508;5.406;2022-07-23T09:23:53;101864.13;;;26.44;47.88
54042;BME280;41156;51.508;5.406;2022-07-23T09:26:54;101859.69;;;26.67;46.07
54042;BME280;41156;51.508;5.406;2022-07-23T09:29:56;101866.47;;;26.74;47.64
54042;BME280;41156;51.508;5.406;2022-07-23T09:33:12;101870.41;;;26.49;46.34
54042;BME280;41156;51.508;5.406;2022-07-23T09:36:13;101874.25;;;26.53;47.53
54042;BME280;41156;51.508;5.406;2022-07-23T09:39:15;101875.56;;;26.37;46.93
54042;BME280;41156;51.508;5.406;2022-07-23T09:42:23;101873.94;;;26.55;45.34
54042;BME280;41156;51.508;5.406;2022-07-23T09:45:23;101877.63;;;26.26;46.71
54042;BME280;41156;51.508;5.406;2022-07-23T09:48:24;101879.06;;;25.99;47.29
54042;BME280;41156;51.508;5.406;2022-07-23T09:51:24;101884.91;;;25.93;47.72
54042;BME280;41156;51.508;5.406;2022-07-23T09:54:38;101885.22;;;25.96;47.49
54042;BME280;41156;51.508;5.406;2022-07-23T09:57:40;101884.50;;;26.10;47.21
54042;BME280;41156;51.508;5.406;2022-07-23T10:00:41;101878.94;;;26.53;46.63
54042;BME280;41156;51.508;5.406;2022-07-23T10:03:42;101876.44;;;26.75;46.51
54042;BME280;41156;51.508;5.406;2022-07-23T10:06:43;101875.09;;;26.92;46.40
54042;BME280;41156;51.508;5.406;2022-07-23T10:09:45;101883.47;;;27.06;46.21
54042;BME280;41156;51.508;5.406;2022-07-23T10:12:47;101879.28;;;26.89;46.19
54042;BME280;41156;51.508;5.406;2022-07-23T10:15:51;101875.47;;;26.23;46.52
54042;BME280;41156;51.508;5.406;2022-07-23T10:18:51;101880.44;;;26.45;47.03
54042;BME280;41156;51.508;5.406;2022-07-23T10:21:58;101883.47;;;26.68;46.37
54042;BME280;41156;51.508;5.406;2022-07-23T10:28:44;101873.47;;;26.48;42.89
54042;BME280;41156;51.508;5.406;2022-07-23T10:35:29;101879.75;;;26.97;45.88
54042;BME280;41156;51.508;5.406;2022-07-23T10:38:43;101879.50;;;27.12;43.69
54042;BME280;41156;51.508;5.406;2022-07-23T10:41:47;101880.91;;;27.28;45.31
54042;BME280;41156;51.508;5.406;2022-07-23T10:44:48;101883.13;;;27.45;44.63
54042;BME280;41156;51.508;5.406;2022-07-23T10:47:49;101881.47;;;27.44;44.75
54042;BME280;41156;51.508;5.406;2022-07-23T10:51:11;101879.13;;;27.52;39.21
54042;BME280;41156;51.508;5.406;2022-07-23T10:54:21;101870.91;;;27.46;43.56
54042;BME280;41156;51.508;5.406;2022-07-23T10:57:24;101868.34;;;27.78;43.44
54042;BME280;41156;51.508;5.406;2022-07-23T11:00:30;101875.72;;;28.01;41.78
54042;BME280;41156;51.508;5.406;2022-07-23T11:03:33;101875.50;;;28.26;42.23
54042;BME280;41156;51.508;5.406;2022-07-23T11:09:48;101870.38;;;28.05;41.61
54042;BME280;41156;51.508;5.406;2022-07-23T11:12:48;101870.38;;;28.05;41.65
54042;BME280;41156;51.508;5.406;2022-07-23T11:19:04;101866.19;;;28.44;41.39
54042;BME280;41156;51.508;5.406;2022-07-23T11:22:05;101861.72;;;28.71;41.10
54042;BME280;41156;51.508;5.406;2022-07-23T11:25:06;101863.47;;;29.03;40.63
54042;BME280;41156;51.508;5.406;2022-07-23T11:28:16;101864.25;;;29.18;39.93
54042;BME280;41156;51.508;5.406;2022-07-23T11:31:17;101863.53;;;29.12;40.66
54042;BME280;41156;51.508;5.406;2022-07-23T11:34:31;101864.84;;;28.92;39.53
54042;BME280;41156;51.508;5.406;2022-07-23T11:37:38;101866.88;;;29.23;39.59
54042;BME280;41156;51.508;5.406;2022-07-23T11:40:39;101865.75;;;29.46;39.95
54042;BME280;41156;51.508;5.406;2022-07-23T11:43:39;101863.66;;;29.29;39.67
54042;BME280;41156;51.508;5.406;2022-07-23T11:46:39;101857.53;;;29.19;39.78
54042;BME280;41156;51.508;5.406;2022-07-23T11:49:55;101868.28;;;29.11;37.40
54042;BME280;41156;51.508;5.406;2022-07-23T11:52:56;101864.06;;;28.77;40.38
54042;BME280;41156;51.508;5.406;2022-07-23T11:56:10;101864.53;;;28.93;38.50
54042;BME280;41156;51.508;5.406;2022-07-23T11:59:12;101860.94;;;29.38;39.73
54042;BME280;41156;51.508;5.406;2022-07-23T12:02:13;101863.22;;;29.67;39.48
54042;BME280;41156;51.508;5.406;2022-07-23T12:05:24;101860.56;;;29.62;36.53
54042;BME280;41156;51.508;5.406;2022-07-23T12:08:25;101861.16;;;29.50;39.07
54042;BME280;41156;51.508;5.406;2022-07-23T12:11:25;101856.75;;;29.49;39.11
54042;BME280;41156;51.508;5.406;2022-07-23T12:14:25;101850.44;;;29.66;38.71
54042;BME280;41156;51.508;5.406;2022-07-23T12:17:33;101847.78;;;29.93;36.97
54042;BME280;41156;51.508;5.406;2022-07-23T12:20:37;101858.41;;;29.59;37.10
54042;BME280;41156;51.508;5.406;2022-07-23T12:23:38;101849.97;;;29.73;38.35
54042;BME280;41156;51.508;5.406;2022-07-23T12:26:38;101848.63;;;30.02;38.52
54042;BME280;41156;51.508;5.406;2022-07-23T12:29:38;101845.38;;;30.08;38.09
54042;BME280;41156;51.508;5.406;2022-07-23T12:32:43;101833.03;;;30.01;37.91
54042;BME280;41156;51.508;5.406;2022-07-23T12:35:45;101836.69;;;30.10;38.12
54042;BME280;41156;51.508;5.406;2022-07-23T12:38:49;101832.63;;;30.25;36.38
54042;BME280;41156;51.508;5.406;2022-07-23T12:41:53;101828.81;;;30.21;37.89
54042;BME280;41156;51.508;5.406;2022-07-23T12:45:04;101829.84;;;30.34;35.38
54042;BME280;41156;51.508;5.406;2022-07-23T12:48:05;101822.97;;;30.57;37.69
54042;BME280;41156;51.508;5.406;2022-07-23T12:51:14;101821.69;;;30.63;35.36
54042;BME280;41156;51.508;5.406;2022-07-23T12:54:14;101822.66;;;30.68;36.88
54042;BME280;41156;51.508;5.406;2022-07-23T12:57:15;101831.53;;;30.70;36.83
54042;BME280;41156;51.508;5.406;2022-07-23T13:00:16;101827.75;;;30.83;36.68
54042;BME280;41156;51.508;5.406;2022-07-23T13:03:25;101821.19;;;31.05;35.42
54042;BME280;41156;51.508;5.406;2022-07-23T13:07:12;101830.88;;;31.08;35.68
54042;BME280;41156;51.508;5.406;2022-07-23T13:09:47;101826.91;;;31.09;35.75
54042;BME280;41156;51.508;5.406;2022-07-23T13:12:48;101837.72;;;31.19;35.51
54042;BME280;41156;51.508;5.406;2022-07-23T13:15:48;101831.53;;;31.05;34.78
54042;BME280;41156;51.508;5.406;2022-07-23T13:18:49;101828.56;;;31.10;35.14
54042;BME280;41156;51.508;5.406;2022-07-23T13:21:49;101829.38;;;31.10;34.63
54042;BME280;41156;51.508;5.406;2022-07-23T13:24:49;101827.72;;;31.09;34.46
54042;BME280;41156;51.508;5.406;2022-07-23T13:27:50;101829.97;;;31.33;34.57
54042;BME280;41156;51.508;5.406;2022-07-23T13:30:51;101833.91;;;31.41;34.54
54042;BME280;41156;51.508;5.406;2022-07-23T13:33:51;101827.06;;;31.12;34.46
54042;BME280;41156;51.508;5.406;2022-07-23T13:36:51;101820.72;;;30.94;34.18
54042;BME280;41156;51.508;5.406;2022-07-23T13:39:52;101806.91;;;30.72;34.33
54042;BME280;41156;51.508;5.406;2022-07-23T13:42:52;101805.91;;;30.33;35.25
54042;BME280;41156;51.508;5.406;2022-07-23T13:45:53;101809.78;;;30.14;35.45
54042;BME280;41156;51.508;5.406;2022-07-23T13:48:53;101802.91;;;30.12;35.67
54042;BME280;41156;51.508;5.406;2022-07-23T13:51:53;101801.97;;;30.34;35.67
54042;BME280;41156;51.508;5.406;2022-07-23T13:54:54;101799.00;;;30.30;35.63
54042;BME280;41156;51.508;5.406;2022-07-23T13:57:54;101795.03;;;30.05;35.43
54042;BME280;41156;51.508;5.406;2022-07-23T14:00:54;101797.03;;;30.13;35.57
54042;BME280;41156;51.508;5.406;2022-07-23T14:03:54;101803.63;;;30.43;35.68
54042;BME280;41156;51.508;5.406;2022-07-23T14:06:55;101795.09;;;30.57;35.00
54042;BME280;41156;51.508;5.406;2022-07-23T14:09:55;101799.19;;;30.86;34.82
54042;BME280;41156;51.508;5.406;2022-07-23T14:12:56;101801.19;;;30.59;34.83
54042;BME280;41156;51.508;5.406;2022-07-23T14:15:57;101793.59;;;30.77;34.64
54042;BME280;41156;51.508;5.406;2022-07-23T14:18:57;101798.03;;;30.96;34.77
54042;BME280;41156;51.508;5.406;2022-07-23T14:21:58;101794.72;;;30.94;34.46
54042;BME280;41156;51.508;5.406;2022-07-23T14:24:59;101797.88;;;31.01;34.21
54042;BME280;41156;51.508;5.406;2022-07-23T14:28:00;101803.59;;;30.87;34.48
54042;BME280;41156;51.508;5.406;2022-07-23T14:31:00;101804.41;;;31.23;34.41
54042;BME280;41156;51.508;5.406;2022-07-23T14:34:00;101804.00;;;31.42;34.24
54042;BME280;41156;51.508;5.406;2022-07-23T14:37:01;101809.38;;;31.47;33.79
54042;BME280;41156;51.508;5.406;2022-07-23T14:40:02;101810.44;;;31.33;34.11
54042;BME280;41156;51.508;5.406;2022-07-23T14:43:02;101805.41;;;31.01;34.90
54042;BME280;41156;51.508;5.406;2022-07-23T14:46:03;101807.72;;;30.72;35.28
54042;BME280;41156;51.508;5.406;2022-07-23T14:49:03;101812.50;;;30.37;35.77
54042;BME280;41156;51.508;5.406;2022-07-23T14:52:05;101801.50;;;30.49;35.17
54042;BME280;41156;51.508;5.406;2022-07-23T14:55:05;101801.66;;;30.79;35.16
54042;BME280;41156;51.508;5.406;2022-07-23T14:58:06;101802.28;;;30.93;34.87
54042;BME280;41156;51.508;5.406;2022-07-23T15:01:06;101802.31;;;30.76;34.95
54042;BME280;41156;51.508;5.406;2022-07-23T15:04:07;101798.16;;;30.21;35.33
54042;BME280;41156;51.508;5.406;2022-07-23T15:07:07;101804.53;;;30.04;35.92
54042;BME280;41156;51.508;5.406;2022-07-23T15:10:07;101792.56;;;29.95;35.98
54042;BME280;41156;51.508;5.406;2022-07-23T15:13:08;101781.09;;;29.96;35.32
54042;BME280;41156;51.508;5.406;2022-07-23T15:16:08;101795.91;;;29.74;35.72
54042;BME280;41156;51.508;5.406;2022-07-23T15:19:08;101792.25;;;29.56;36.17
54042;BME280;41156;51.508;5.406;2022-07-23T15:22:09;101790.84;;;29.36;36.58
54042;BME280;41156;51.508;5.406;2022-07-23T15:25:09;101783.44;;;29.63;36.07
54042;BME280;41156;51.508;5.406;2022-07-23T15:28:09;101784.88;;;30.00;35.55
54042;BME280;41156;51.508;5.406;2022-07-23T15:31:10;101779.34;;;30.26;35.25
54042;BME280;41156;51.508;5.406;2022-07-23T15:34:10;101771.78;;;30.18;35.68
54042;BME280;41156;51.508;5.406;2022-07-23T15:37:10;101777.69;;;30.17;35.88
54042;BME280;41156;51.508;5.406;2022-07-23T15:40:11;101766.56;;;30.43;35.58
54042;BME280;41156;51.508;5.406;2022-07-23T15:43:12;101771.97;;;30.66;35.73
54042;BME280;41156;51.508;5.406;2022-07-23T15:46:12;101771.31;;;30.60;35.27
54042;BME280;41156;51.508;5.406;2022-07-23T15:49:13;101770.66;;;30.72;35.27
54042;BME280;41156;51.508;5.406;2022-07-23T15:52:14;101768.38;;;30.39;35.41
54042;BME280;41156;51.508;5.406;2022-07-23T15:55:14;101768.84;;;30.15;35.84
54042;BME280;41156;51.508;5.406;2022-07-23T15:58:14;101766.53;;;30.25;35.76
54042;BME280;41156;51.508;5.406;2022-07-23T16:01:15;101768.19;;;30.26;35.22
54042;BME280;41156;51.508;5.406;2022-07-23T16:04:15;101762.94;;;30.34;35.09